GosportINWX Station Historical Data
 
Daily Summary for May 14, 2021 Units:  English    Metric   Both
Daily Weekly Monthly Yearly Custom
  Current: High: Low: Average:
Temperature: 42.2 °F 50.2 °F 42.2 °F 46.5 °F
Dew Point: 36.1 °F 38.3 °F 34.3 °F 36 °F
Humidity: 79% 79% 58% 67%
Wind Speed: 0mph 0mph 0mph 0mph
Wind Gust: 0mph 0mph - -
WindCalm - -
Pressure: 29.98 in 29.98 in 29.97 in -
Precipitation: 0.00 in      
 
 
Tabular Data for May 14, 2021
Time Temperature Dew Point Pressure Wind Wind Speed Wind Gust Humidity Rainfall Rate (Hourly) solar
00:04 50.2 °F 37.2 °F 29.98 in Calm     61% 0.00 in W/m2
00:09 50.2 °F 37.5 °F 29.98 in Calm     61.6% 0.00 in W/m2
00:14 50.2 °F 38 °F 29.98 in Calm     62.6% 0.00 in W/m2
00:19 50.2 °F 37.3 °F 29.98 in Calm     61.2% 0.00 in W/m2
00:24 50.1 °F 37.2 °F 29.98 in Calm     61% 0.00 in W/m2
00:29 50 °F 36.8 °F 29.98 in Calm     60.1% 0.00 in W/m2
00:34 50 °F 37.6 °F 29.98 in Calm     62.2% 0.00 in W/m2
00:39 49.9 °F 38.3 °F 29.98 in Calm     64.3% 0.00 in W/m2
00:44 49.6 °F 38.1 °F 29.98 in Calm     64.5% 0.00 in W/m2
00:49 49.4 °F 37 °F 29.98 in Calm     62.4% 0.00 in W/m2
00:54 49.3 °F 36.4 °F 29.98 in Calm     61% 0.00 in W/m2
00:59 49.4 °F 36.5 °F 29.98 in Calm     61% 0.00 in W/m2
01:04 49.6 °F 36.7 °F 29.98 in Calm     61% 0.00 in W/m2
01:09 49.6 °F 36.4 °F 29.98 in Calm     60.3% 0.00 in W/m2
01:14 49.8 °F 36.5 °F 29.98 in Calm     60% 0.00 in W/m2
01:19 49.6 °F 36.3 °F 29.98 in Calm     60% 0.00 in W/m2
01:24 49.6 °F 36 °F 29.98 in Calm     59.2% 0.00 in W/m2
01:29 49.6 °F 36.1 °F 29.98 in Calm     59.4% 0.00 in W/m2
01:34 49.5 °F 36.2 °F 29.98 in Calm     60% 0.00 in W/m2
01:39 49.4 °F 35.9 °F 29.98 in Calm     59.7% 0.00 in W/m2
01:44 49.2 °F 35.5 °F 29.98 in Calm     59% 0.00 in W/m2
01:49 49 °F 35.2 °F 29.98 in Calm     58.8% 0.00 in W/m2
01:54 48.8 °F 34.7 °F 29.98 in Calm     58% 0.00 in W/m2
01:59 48.6 °F 34.4 °F 29.97 in Calm     58% 0.00 in W/m2
02:04 48.4 °F 34.3 °F 29.98 in Calm     58% 0.00 in W/m2
02:09 48.3 °F 34.4 °F 29.98 in Calm     58.5% 0.00 in W/m2
02:14 47.9 °F 34.7 °F 29.97 in Calm     60% 0.00 in W/m2
02:19 47.7 °F 34.6 °F 29.97 in Calm     60.3% 0.00 in W/m2
02:24 47.6 °F 34.8 °F 29.98 in Calm     61% 0.00 in W/m2
02:29 47.5 °F 34.8 °F 29.98 in Calm     61.4% 0.00 in W/m2
02:34 47.3 °F 35.1 °F 29.97 in Calm     62.6% 0.00 in W/m2
02:39 47.1 °F 35.6 °F 29.97 in Calm     63.9% 0.00 in W/m2
02:44 46.9 °F 36 °F 29.97 in Calm     65.7% 0.00 in W/m2
02:49 46.7 °F 36.1 °F 29.97 in Calm     66.5% 0.00 in W/m2
02:54 46.5 °F 35.7 °F 29.97 in Calm     66% 0.00 in W/m2
02:59 46.2 °F 35.2 °F 29.97 in Calm     65.2% 0.00 in W/m2
03:04 46.1 °F 35.6 °F 29.97 in Calm     66.5% 0.00 in W/m2
03:09 46 °F 36 °F 29.97 in Calm     67.9% 0.00 in W/m2
03:14 45.9 °F 35.9 °F 29.97 in Calm     68% 0.00 in W/m2
03:19 45.8 °F 35.8 °F 29.97 in Calm     68% 0.00 in W/m2
03:24 45.7 °F 35.7 °F 29.97 in Calm     68% 0.00 in W/m2
03:29 45.7 °F 35.7 °F 29.97 in Calm     68% 0.00 in W/m2
03:34 45.7 °F 35.3 °F 29.97 in Calm     67.1% 0.00 in W/m2
03:39 45.7 °F 35.3 °F 29.97 in Calm     67% 0.00 in W/m2
03:44 45.7 °F 35.6 °F 29.97 in Calm     67.9% 0.00 in W/m2
03:49 45.7 °F 36.1 °F 29.97 in Calm     69% 0.00 in W/m2
03:54 45.5 °F 35.9 °F 29.97 in Calm     69% 0.00 in W/m2
03:59 45.5 °F 36.2 °F 29.97 in Calm     69.8% 0.00 in W/m2
04:04 45.5 °F 36.3 °F 29.97 in Calm     70% 0.00 in W/m2
04:09 45.4 °F 36.4 °F 29.97 in Calm     70.5% 0.00 in W/m2
04:14 45 °F 36.2 °F 29.97 in Calm     71% 0.00 in W/m2
04:19 44.9 °F 36 °F 29.97 in Calm     71% 0.00 in W/m2
04:24 44.7 °F 35.8 °F 29.97 in Calm     71% 0.00 in W/m2
04:29 44.6 °F 36 °F 29.97 in Calm     71.8% 0.00 in W/m2
04:34 44.4 °F 36.3 °F 29.97 in Calm     73% 0.00 in W/m2
04:39 44.2 °F 36.1 °F 29.97 in Calm     73% 0.00 in W/m2
04:44 44.2 °F 36.1 °F 29.97 in Calm     73% 0.00 in W/m2
04:49 44.1 °F 36 °F 29.97 in Calm     73.1% 0.00 in W/m2
04:54 43.9 °F 36.1 °F 29.97 in Calm     74% 0.00 in W/m2
04:59 43.7 °F 36 °F 29.97 in Calm     74% 0.00 in W/m2
05:04 43.5 °F 35.8 °F 29.97 in Calm     74% 0.00 in W/m2
05:09 43.3 °F 35.7 °F 29.98 in Calm     74.4% 0.00 in W/m2
05:14 43.2 °F 35.8 °F 29.97 in Calm     75% 0.00 in W/m2
05:19 43 °F 35.7 °F 29.97 in Calm     75.3% 0.00 in W/m2
05:24 42.9 °F 35.8 °F 29.98 in Calm     76% 0.00 in W/m2
05:29 42.8 °F 35.9 °F 29.98 in Calm     76.2% 0.00 in W/m2
05:34 42.8 °F 36.1 °F 29.98 in Calm     77% 0.00 in W/m2
05:39 42.8 °F 36.1 °F 29.98 in Calm     77% 0.00 in W/m2
05:44 42.6 °F 36.5 °F 29.98 in Calm     78.7% 0.00 in W/m2
05:49 42.6 °F 36.6 °F 29.98 in Calm     79% 0.00 in W/m2
05:54 42.5 °F 36.5 °F 29.98 in Calm     79% 0.00 in W/m2
05:59 42.4 °F 36.4 °F 29.98 in Calm     79% 0.00 in W/m2
06:04 42.3 °F 36.2 °F 29.98 in Calm     79% 0.00 in W/m2
06:09 42.2 °F 36.1 °F 29.98 in Calm     79% 0.00 in W/m2
Juneau County Weather
Compliments of Weather Underground - 4 mb